sensor_id;sensor_type;location;lat;lon;timestamp;P1;durP1;ratioP1;P2;durP2;ratioP2
25715;SDS011;13573;50.936;4.328;2023-05-14T00:00:28;106.73;;;50.30;;
25715;SDS011;13573;50.936;4.328;2023-05-14T00:02:54;101.20;;;49.93;;
25715;SDS011;13573;50.936;4.328;2023-05-14T00:05:21;102.87;;;50.83;;
25715;SDS011;13573;50.936;4.328;2023-05-14T00:07:48;102.23;;;49.77;;
25715;SDS011;13573;50.936;4.328;2023-05-14T00:10:15;107.90;;;51.50;;
25715;SDS011;13573;50.936;4.328;2023-05-14T00:12:43;106.80;;;50.93;;
25715;SDS011;13573;50.936;4.328;2023-05-14T00:15:10;101.80;;;50.37;;
25715;SDS011;13573;50.936;4.328;2023-05-14T00:17:37;117.47;;;50.00;;
25715;SDS011;13573;50.936;4.328;2023-05-14T00:20:04;108.20;;;50.57;;
25715;SDS011;13573;50.936;4.328;2023-05-14T00:22:32;109.60;;;49.80;;
25715;SDS011;13573;50.936;4.328;2023-05-14T00:24:59;110.77;;;49.70;;
25715;SDS011;13573;50.936;4.328;2023-05-14T00:27:26;109.63;;;51.93;;
25715;SDS011;13573;50.936;4.328;2023-05-14T00:29:52;106.77;;;51.33;;
25715;SDS011;13573;50.936;4.328;2023-05-14T00:32:19;105.77;;;51.27;;
25715;SDS011;13573;50.936;4.328;2023-05-14T00:34:46;107.57;;;52.17;;
25715;SDS011;13573;50.936;4.328;2023-05-14T00:37:12;118.00;;;51.77;;
25715;SDS011;13573;50.936;4.328;2023-05-14T00:39:39;106.80;;;52.87;;
25715;SDS011;13573;50.936;4.328;2023-05-14T00:42:06;121.07;;;53.40;;
25715;SDS011;13573;50.936;4.328;2023-05-14T00:44:32;118.70;;;53.40;;
25715;SDS011;13573;50.936;4.328;2023-05-14T00:47:01;128.40;;;56.20;;
25715;SDS011;13573;50.936;4.328;2023-05-14T00:49:28;124.73;;;55.90;;
25715;SDS011;13573;50.936;4.328;2023-05-14T00:51:55;104.77;;;51.90;;
25715;SDS011;13573;50.936;4.328;2023-05-14T00:54:23;122.17;;;51.73;;
25715;SDS011;13573;50.936;4.328;2023-05-14T00:56:50;120.43;;;55.30;;
25715;SDS011;13573;50.936;4.328;2023-05-14T00:59:17;120.37;;;55.50;;
25715;SDS011;13573;50.936;4.328;2023-05-14T01:01:44;117.07;;;55.13;;
25715;SDS011;13573;50.936;4.328;2023-05-14T01:04:10;118.97;;;51.93;;
25715;SDS011;13573;50.936;4.328;2023-05-14T01:06:45;107.00;;;50.20;;
25715;SDS011;13573;50.936;4.328;2023-05-14T01:09:17;111.83;;;55.07;;
25715;SDS011;13573;50.936;4.328;2023-05-14T01:11:53;118.77;;;56.17;;
25715;SDS011;13573;50.936;4.328;2023-05-14T01:14:29;127.83;;;52.20;;
25715;SDS011;13573;50.936;4.328;2023-05-14T01:16:57;116.00;;;53.10;;
25715;SDS011;13573;50.936;4.328;2023-05-14T01:19:38;118.73;;;53.40;;
25715;SDS011;13573;50.936;4.328;2023-05-14T01:22:08;118.53;;;53.90;;
25715;SDS011;13573;50.936;4.328;2023-05-14T01:24:35;122.23;;;54.80;;
25715;SDS011;13573;50.936;4.328;2023-05-14T01:27:09;123.47;;;54.23;;
25715;SDS011;13573;50.936;4.328;2023-05-14T01:29:56;116.53;;;52.57;;
25715;SDS011;13573;50.936;4.328;2023-05-14T01:32:24;107.27;;;52.10;;
25715;SDS011;13573;50.936;4.328;2023-05-14T01:34:52;122.80;;;53.77;;
25715;SDS011;13573;50.936;4.328;2023-05-14T01:37:23;129.83;;;53.10;;
25715;SDS011;13573;50.936;4.328;2023-05-14T01:39:50;122.50;;;54.97;;
25715;SDS011;13573;50.936;4.328;2023-05-14T01:42:18;128.00;;;54.83;;
25715;SDS011;13573;50.936;4.328;2023-05-14T01:44:45;111.40;;;53.90;;
25715;SDS011;13573;50.936;4.328;2023-05-14T01:47:12;114.33;;;52.07;;
25715;SDS011;13573;50.936;4.328;2023-05-14T01:49:38;113.57;;;52.47;;
25715;SDS011;13573;50.936;4.328;2023-05-14T01:52:05;107.63;;;54.77;;
25715;SDS011;13573;50.936;4.328;2023-05-14T01:54:33;120.23;;;55.33;;
25715;SDS011;13573;50.936;4.328;2023-05-14T01:56:59;119.60;;;54.60;;
25715;SDS011;13573;50.936;4.328;2023-05-14T01:59:26;107.97;;;51.80;;
25715;SDS011;13573;50.936;4.328;2023-05-14T02:01:54;113.07;;;50.20;;
25715;SDS011;13573;50.936;4.328;2023-05-14T02:04:21;123.37;;;52.43;;
25715;SDS011;13573;50.936;4.328;2023-05-14T02:06:47;103.63;;;49.77;;
25715;SDS011;13573;50.936;4.328;2023-05-14T02:09:14;113.63;;;52.50;;
25715;SDS011;13573;50.936;4.328;2023-05-14T02:11:41;109.43;;;50.60;;
25715;SDS011;13573;50.936;4.328;2023-05-14T02:14:07;112.17;;;52.77;;
25715;SDS011;13573;50.936;4.328;2023-05-14T02:16:34;109.97;;;50.50;;
25715;SDS011;13573;50.936;4.328;2023-05-14T02:19:00;112.50;;;53.60;;
25715;SDS011;13573;50.936;4.328;2023-05-14T02:21:27;114.13;;;52.43;;
25715;SDS011;13573;50.936;4.328;2023-05-14T02:23:53;99.53;;;51.27;;
25715;SDS011;13573;50.936;4.328;2023-05-14T02:26:20;110.83;;;52.40;;
25715;SDS011;13573;50.936;4.328;2023-05-14T02:28:47;102.83;;;50.93;;
25715;SDS011;13573;50.936;4.328;2023-05-14T02:31:14;112.77;;;53.70;;
25715;SDS011;13573;50.936;4.328;2023-05-14T02:33:42;119.63;;;54.17;;
25715;SDS011;13573;50.936;4.328;2023-05-14T02:36:09;118.63;;;52.83;;
25715;SDS011;13573;50.936;4.328;2023-05-14T02:38:36;111.97;;;52.83;;
25715;SDS011;13573;50.936;4.328;2023-05-14T02:41:02;118.30;;;53.97;;
25715;SDS011;13573;50.936;4.328;2023-05-14T02:43:29;114.60;;;54.13;;
25715;SDS011;13573;50.936;4.328;2023-05-14T02:45:55;99.73;;;51.00;;
25715;SDS011;13573;50.936;4.328;2023-05-14T02:48:22;123.03;;;52.97;;
25715;SDS011;13573;50.936;4.328;2023-05-14T02:50:49;103.03;;;51.43;;
25715;SDS011;13573;50.936;4.328;2023-05-14T02:53:16;114.67;;;50.00;;
25715;SDS011;13573;50.936;4.328;2023-05-14T02:55:43;116.57;;;53.53;;
25715;SDS011;13573;50.936;4.328;2023-05-14T02:58:10;114.10;;;51.20;;
25715;SDS011;13573;50.936;4.328;2023-05-14T03:00:36;114.63;;;51.93;;
25715;SDS011;13573;50.936;4.328;2023-05-14T03:03:03;114.50;;;52.20;;
25715;SDS011;13573;50.936;4.328;2023-05-14T03:05:29;117.93;;;53.77;;
25715;SDS011;13573;50.936;4.328;2023-05-14T03:07:56;105.50;;;50.07;;
25715;SDS011;13573;50.936;4.328;2023-05-14T03:10:23;121.97;;;52.90;;
25715;SDS011;13573;50.936;4.328;2023-05-14T03:12:50;113.10;;;52.67;;
25715;SDS011;13573;50.936;4.328;2023-05-14T03:15:17;118.47;;;53.13;;
25715;SDS011;13573;50.936;4.328;2023-05-14T03:17:43;119.93;;;53.67;;
25715;SDS011;13573;50.936;4.328;2023-05-14T03:20:10;127.27;;;53.63;;
25715;SDS011;13573;50.936;4.328;2023-05-14T03:22:37;115.00;;;51.93;;
25715;SDS011;13573;50.936;4.328;2023-05-14T03:25:04;111.30;;;52.60;;
25715;SDS011;13573;50.936;4.328;2023-05-14T03:27:31;117.13;;;51.33;;
25715;SDS011;13573;50.936;4.328;2023-05-14T03:29:59;110.80;;;52.67;;
25715;SDS011;13573;50.936;4.328;2023-05-14T03:32:25;132.80;;;53.50;;
25715;SDS011;13573;50.936;4.328;2023-05-14T03:34:52;115.63;;;54.00;;
25715;SDS011;13573;50.936;4.328;2023-05-14T03:37:19;109.53;;;50.53;;
25715;SDS011;13573;50.936;4.328;2023-05-14T03:39:45;116.53;;;51.13;;
25715;SDS011;13573;50.936;4.328;2023-05-14T03:42:12;105.97;;;50.67;;
25715;SDS011;13573;50.936;4.328;2023-05-14T03:44:39;106.63;;;50.90;;
25715;SDS011;13573;50.936;4.328;2023-05-14T03:47:05;107.97;;;50.47;;
25715;SDS011;13573;50.936;4.328;2023-05-14T03:49:32;109.97;;;53.57;;
25715;SDS011;13573;50.936;4.328;2023-05-14T03:51:59;102.47;;;51.43;;
25715;SDS011;13573;50.936;4.328;2023-05-14T03:54:26;115.77;;;53.73;;
25715;SDS011;13573;50.936;4.328;2023-05-14T03:56:52;113.37;;;53.20;;
25715;SDS011;13573;50.936;4.328;2023-05-14T03:59:19;110.73;;;50.93;;
25715;SDS011;13573;50.936;4.328;2023-05-14T04:01:46;110.93;;;49.40;;
25715;SDS011;13573;50.936;4.328;2023-05-14T04:04:12;109.17;;;50.50;;
25715;SDS011;13573;50.936;4.328;2023-05-14T04:06:39;104.60;;;51.40;;
25715;SDS011;13573;50.936;4.328;2023-05-14T04:09:06;108.37;;;51.37;;
25715;SDS011;13573;50.936;4.328;2023-05-14T04:11:32;114.83;;;50.90;;
25715;SDS011;13573;50.936;4.328;2023-05-14T04:13:59;113.80;;;52.53;;
25715;SDS011;13573;50.936;4.328;2023-05-14T04:16:26;114.77;;;51.07;;
25715;SDS011;13573;50.936;4.328;2023-05-14T04:18:52;118.80;;;52.60;;
25715;SDS011;13573;50.936;4.328;2023-05-14T04:21:19;117.03;;;50.60;;
25715;SDS011;13573;50.936;4.328;2023-05-14T04:23:45;102.53;;;50.47;;
25715;SDS011;13573;50.936;4.328;2023-05-14T04:26:12;115.40;;;50.80;;
25715;SDS011;13573;50.936;4.328;2023-05-14T04:28:39;118.23;;;53.77;;
25715;SDS011;13573;50.936;4.328;2023-05-14T04:31:05;113.23;;;50.00;;
25715;SDS011;13573;50.936;4.328;2023-05-14T04:33:32;120.10;;;50.63;;
25715;SDS011;13573;50.936;4.328;2023-05-14T04:35:58;123.37;;;52.33;;
25715;SDS011;13573;50.936;4.328;2023-05-14T04:38:25;120.27;;;50.57;;
25715;SDS011;13573;50.936;4.328;2023-05-14T04:40:52;110.03;;;50.77;;
25715;SDS011;13573;50.936;4.328;2023-05-14T04:43:19;108.03;;;49.30;;
25715;SDS011;13573;50.936;4.328;2023-05-14T04:45:45;111.13;;;50.77;;
25715;SDS011;13573;50.936;4.328;2023-05-14T04:48:12;108.17;;;49.80;;
25715;SDS011;13573;50.936;4.328;2023-05-14T04:50:39;116.20;;;49.03;;
25715;SDS011;13573;50.936;4.328;2023-05-14T04:53:05;110.33;;;49.13;;
25715;SDS011;13573;50.936;4.328;2023-05-14T04:55:32;113.20;;;49.03;;
25715;SDS011;13573;50.936;4.328;2023-05-14T04:57:58;98.63;;;46.07;;
25715;SDS011;13573;50.936;4.328;2023-05-14T05:00:25;107.10;;;47.87;;
25715;SDS011;13573;50.936;4.328;2023-05-14T05:02:53;104.37;;;48.27;;
25715;SDS011;13573;50.936;4.328;2023-05-14T05:05:19;104.93;;;47.53;;
25715;SDS011;13573;50.936;4.328;2023-05-14T05:07:46;104.33;;;50.10;;
25715;SDS011;13573;50.936;4.328;2023-05-14T05:10:13;113.77;;;48.83;;
25715;SDS011;13573;50.936;4.328;2023-05-14T05:12:40;107.33;;;49.03;;
25715;SDS011;13573;50.936;4.328;2023-05-14T05:15:07;102.17;;;47.20;;
25715;SDS011;13573;50.936;4.328;2023-05-14T05:17:34;100.27;;;46.07;;
25715;SDS011;13573;50.936;4.328;2023-05-14T05:20:01;118.97;;;46.40;;
25715;SDS011;13573;50.936;4.328;2023-05-14T05:22:30;102.90;;;45.10;;
25715;SDS011;13573;50.936;4.328;2023-05-14T05:24:57;99.67;;;45.10;;
25715;SDS011;13573;50.936;4.328;2023-05-14T05:27:24;103.33;;;44.50;;
25715;SDS011;13573;50.936;4.328;2023-05-14T05:29:51;99.70;;;43.83;;
25715;SDS011;13573;50.936;4.328;2023-05-14T05:32:17;98.00;;;45.17;;
25715;SDS011;13573;50.936;4.328;2023-05-14T05:34:44;101.60;;;43.53;;
25715;SDS011;13573;50.936;4.328;2023-05-14T05:37:10;107.63;;;46.47;;
25715;SDS011;13573;50.936;4.328;2023-05-14T05:39:39;95.27;;;44.07;;
25715;SDS011;13573;50.936;4.328;2023-05-14T05:42:06;92.67;;;45.77;;
25715;SDS011;13573;50.936;4.328;2023-05-14T05:44:33;97.90;;;44.97;;
25715;SDS011;13573;50.936;4.328;2023-05-14T05:47:00;100.23;;;44.70;;
25715;SDS011;13573;50.936;4.328;2023-05-14T05:49:26;98.50;;;44.33;;
25715;SDS011;13573;50.936;4.328;2023-05-14T05:51:53;99.20;;;45.47;;
25715;SDS011;13573;50.936;4.328;2023-05-14T05:54:21;89.53;;;44.13;;
25715;SDS011;13573;50.936;4.328;2023-05-14T05:56:49;106.37;;;45.00;;
25715;SDS011;13573;50.936;4.328;2023-05-14T05:59:16;90.00;;;43.77;;
25715;SDS011;13573;50.936;4.328;2023-05-14T06:01:42;88.30;;;43.83;;
25715;SDS011;13573;50.936;4.328;2023-05-14T06:04:09;99.90;;;43.90;;
25715;SDS011;13573;50.936;4.328;2023-05-14T06:06:36;85.13;;;42.13;;
25715;SDS011;13573;50.936;4.328;2023-05-14T06:09:02;88.43;;;42.00;;
25715;SDS011;13573;50.936;4.328;2023-05-14T06:11:31;91.03;;;42.23;;
25715;SDS011;13573;50.936;4.328;2023-05-14T06:13:58;92.77;;;43.37;;
25715;SDS011;13573;50.936;4.328;2023-05-14T06:16:24;85.50;;;42.27;;
25715;SDS011;13573;50.936;4.328;2023-05-14T06:18:51;92.47;;;42.23;;
25715;SDS011;13573;50.936;4.328;2023-05-14T06:21:18;82.67;;;42.33;;
25715;SDS011;13573;50.936;4.328;2023-05-14T06:23:46;88.13;;;41.00;;
25715;SDS011;13573;50.936;4.328;2023-05-14T06:26:12;80.27;;;40.33;;
25715;SDS011;13573;50.936;4.328;2023-05-14T06:28:39;82.60;;;40.50;;
25715;SDS011;13573;50.936;4.328;2023-05-14T06:31:05;86.20;;;41.77;;
25715;SDS011;13573;50.936;4.328;2023-05-14T06:33:32;83.07;;;38.33;;
25715;SDS011;13573;50.936;4.328;2023-05-14T06:35:59;77.90;;;40.13;;
25715;SDS011;13573;50.936;4.328;2023-05-14T06:38:28;83.53;;;40.77;;
25715;SDS011;13573;50.936;4.328;2023-05-14T06:40:54;78.20;;;38.90;;
25715;SDS011;13573;50.936;4.328;2023-05-14T06:43:21;70.90;;;36.70;;
25715;SDS011;13573;50.936;4.328;2023-05-14T06:45:48;76.60;;;38.13;;
25715;SDS011;13573;50.936;4.328;2023-05-14T06:48:15;74.80;;;37.23;;
25715;SDS011;13573;50.936;4.328;2023-05-14T06:50:44;77.03;;;37.67;;
25715;SDS011;13573;50.936;4.328;2023-05-14T06:53:12;69.13;;;34.90;;
25715;SDS011;13573;50.936;4.328;2023-05-14T06:55:38;74.07;;;37.40;;
25715;SDS011;13573;50.936;4.328;2023-05-14T06:58:06;78.70;;;34.53;;
25715;SDS011;13573;50.936;4.328;2023-05-14T07:00:33;71.83;;;34.80;;
25715;SDS011;13573;50.936;4.328;2023-05-14T07:02:59;75.23;;;33.70;;
25715;SDS011;13573;50.936;4.328;2023-05-14T07:05:26;78.53;;;35.83;;
25715;SDS011;13573;50.936;4.328;2023-05-14T07:07:53;74.97;;;36.83;;
25715;SDS011;13573;50.936;4.328;2023-05-14T07:10:20;77.73;;;35.37;;
25715;SDS011;13573;50.936;4.328;2023-05-14T07:12:47;75.60;;;36.63;;
25715;SDS011;13573;50.936;4.328;2023-05-14T07:15:14;77.73;;;37.90;;
25715;SDS011;13573;50.936;4.328;2023-05-14T07:17:40;75.67;;;35.90;;
25715;SDS011;13573;50.936;4.328;2023-05-14T07:20:07;64.47;;;34.87;;
25715;SDS011;13573;50.936;4.328;2023-05-14T07:22:34;69.43;;;35.43;;
25715;SDS011;13573;50.936;4.328;2023-05-14T07:25:01;68.93;;;35.57;;
25715;SDS011;13573;50.936;4.328;2023-05-14T07:27:28;69.70;;;36.43;;
25715;SDS011;13573;50.936;4.328;2023-05-14T07:29:54;72.33;;;34.63;;
25715;SDS011;13573;50.936;4.328;2023-05-14T07:32:21;61.67;;;33.57;;
25715;SDS011;13573;50.936;4.328;2023-05-14T07:34:49;57.67;;;34.33;;
25715;SDS011;13573;50.936;4.328;2023-05-14T07:37:16;60.63;;;32.47;;
25715;SDS011;13573;50.936;4.328;2023-05-14T07:39:42;63.27;;;33.27;;
25715;SDS011;13573;50.936;4.328;2023-05-14T07:42:09;61.40;;;32.10;;
25715;SDS011;13573;50.936;4.328;2023-05-14T07:44:35;49.73;;;30.60;;
25715;SDS011;13573;50.936;4.328;2023-05-14T07:47:02;52.97;;;30.80;;
25715;SDS011;13573;50.936;4.328;2023-05-14T07:49:29;51.97;;;29.67;;
25715;SDS011;13573;50.936;4.328;2023-05-14T07:51:55;48.50;;;31.00;;
25715;SDS011;13573;50.936;4.328;2023-05-14T07:54:23;56.87;;;31.90;;
25715;SDS011;13573;50.936;4.328;2023-05-14T07:56:49;48.83;;;30.37;;
25715;SDS011;13573;50.936;4.328;2023-05-14T07:59:16;52.00;;;30.60;;
25715;SDS011;13573;50.936;4.328;2023-05-14T08:01:43;56.03;;;31.77;;
25715;SDS011;13573;50.936;4.328;2023-05-14T08:04:10;56.63;;;29.67;;
25715;SDS011;13573;50.936;4.328;2023-05-14T08:06:36;49.60;;;29.17;;
25715;SDS011;13573;50.936;4.328;2023-05-14T08:09:03;43.00;;;28.13;;
25715;SDS011;13573;50.936;4.328;2023-05-14T08:11:30;55.97;;;30.43;;
25715;SDS011;13573;50.936;4.328;2023-05-14T08:13:57;45.57;;;29.63;;
25715;SDS011;13573;50.936;4.328;2023-05-14T08:16:23;49.73;;;28.90;;
25715;SDS011;13573;50.936;4.328;2023-05-14T08:18:50;45.07;;;28.80;;
25715;SDS011;13573;50.936;4.328;2023-05-14T08:21:17;43.50;;;29.10;;
25715;SDS011;13573;50.936;4.328;2023-05-14T08:23:43;46.97;;;27.97;;
25715;SDS011;13573;50.936;4.328;2023-05-14T08:26:10;52.80;;;28.67;;
25715;SDS011;13573;50.936;4.328;2023-05-14T08:28:37;42.10;;;27.10;;
25715;SDS011;13573;50.936;4.328;2023-05-14T08:31:03;44.50;;;29.47;;
25715;SDS011;13573;50.936;4.328;2023-05-14T08:33:30;45.60;;;31.20;;
25715;SDS011;13573;50.936;4.328;2023-05-14T08:35:57;41.50;;;31.83;;
25715;SDS011;13573;50.936;4.328;2023-05-14T08:38:25;50.13;;;31.23;;
25715;SDS011;13573;50.936;4.328;2023-05-14T08:40:55;44.90;;;32.90;;
25715;SDS011;13573;50.936;4.328;2023-05-14T08:43:25;41.77;;;29.53;;
25715;SDS011;13573;50.936;4.328;2023-05-14T08:45:56;45.30;;;29.83;;
25715;SDS011;13573;50.936;4.328;2023-05-14T08:48:23;40.57;;;30.30;;
25715;SDS011;13573;50.936;4.328;2023-05-14T08:50:53;46.50;;;31.97;;
25715;SDS011;13573;50.936;4.328;2023-05-14T08:53:20;40.73;;;30.40;;
25715;SDS011;13573;50.936;4.328;2023-05-14T08:55:47;46.27;;;31.90;;
25715;SDS011;13573;50.936;4.328;2023-05-14T08:58:16;40.70;;;30.83;;
25715;SDS011;13573;50.936;4.328;2023-05-14T09:00:43;43.20;;;30.73;;
25715;SDS011;13573;50.936;4.328;2023-05-14T09:03:09;46.93;;;33.17;;
25715;SDS011;13573;50.936;4.328;2023-05-14T09:05:37;39.97;;;33.10;;
25715;SDS011;13573;50.936;4.328;2023-05-14T09:08:04;37.77;;;30.37;;
25715;SDS011;13573;50.936;4.328;2023-05-14T09:10:31;39.80;;;33.70;;
25715;SDS011;13573;50.936;4.328;2023-05-14T09:12:57;32.27;;;19.17;;
25715;SDS011;13573;50.936;4.328;2023-05-14T09:15:24;37.83;;;20.70;;
25715;SDS011;13573;50.936;4.328;2023-05-14T09:17:54;36.13;;;20.43;;
25715;SDS011;13573;50.936;4.328;2023-05-14T09:20:21;36.90;;;19.57;;
25715;SDS011;13573;50.936;4.328;2023-05-14T09:22:52;29.33;;;18.20;;
25715;SDS011;13573;50.936;4.328;2023-05-14T09:25:19;36.87;;;18.57;;
25715;SDS011;13573;50.936;4.328;2023-05-14T09:27:47;29.60;;;17.60;;
25715;SDS011;13573;50.936;4.328;2023-05-14T09:30:16;31.13;;;23.47;;
25715;SDS011;13573;50.936;4.328;2023-05-14T09:32:43;27.27;;;17.37;;
25715;SDS011;13573;50.936;4.328;2023-05-14T09:35:13;29.03;;;17.07;;
25715;SDS011;13573;50.936;4.328;2023-05-14T09:37:44;27.37;;;18.17;;
25715;SDS011;13573;50.936;4.328;2023-05-14T09:40:12;30.87;;;17.80;;
25715;SDS011;13573;50.936;4.328;2023-05-14T09:42:40;29.83;;;16.73;;
25715;SDS011;13573;50.936;4.328;2023-05-14T09:45:07;33.43;;;18.43;;
25715;SDS011;13573;50.936;4.328;2023-05-14T09:47:35;29.80;;;16.47;;
25715;SDS011;13573;50.936;4.328;2023-05-14T09:50:03;23.80;;;17.53;;
25715;SDS011;13573;50.936;4.328;2023-05-14T09:52:31;24.10;;;21.50;;
25715;SDS011;13573;50.936;4.328;2023-05-14T09:54:58;34.37;;;26.17;;
25715;SDS011;13573;50.936;4.328;2023-05-14T09:57:25;26.60;;;21.70;;
25715;SDS011;13573;50.936;4.328;2023-05-14T09:59:52;27.90;;;22.70;;
25715;SDS011;13573;50.936;4.328;2023-05-14T10:02:22;31.90;;;23.57;;
25715;SDS011;13573;50.936;4.328;2023-05-14T10:04:52;31.43;;;23.90;;
25715;SDS011;13573;50.936;4.328;2023-05-14T10:07:22;29.10;;;22.90;;
25715;SDS011;13573;50.936;4.328;2023-05-14T10:09:52;30.32;;;23.20;;
25715;SDS011;13573;50.936;4.328;2023-05-14T10:12:21;30.40;;;25.77;;
25715;SDS011;13573;50.936;4.328;2023-05-14T10:14:49;33.30;;;26.27;;
25715;SDS011;13573;50.936;4.328;2023-05-14T10:17:20;31.73;;;24.40;;
25715;SDS011;13573;50.936;4.328;2023-05-14T10:19:49;27.27;;;23.45;;
25715;SDS011;13573;50.936;4.328;2023-05-14T10:22:21;31.48;;;27.93;;
25715;SDS011;13573;50.936;4.328;2023-05-14T10:24:48;31.27;;;27.73;;
25715;SDS011;13573;50.936;4.328;2023-05-14T10:27:19;25.12;;;17.05;;
25715;SDS011;13573;50.936;4.328;2023-05-14T10:29:50;24.95;;;15.15;;
25715;SDS011;13573;50.936;4.328;2023-05-14T10:32:20;20.30;;;13.53;;
25715;SDS011;13573;50.936;4.328;2023-05-14T10:34:49;21.17;;;14.75;;
25715;SDS011;13573;50.936;4.328;2023-05-14T10:37:19;24.95;;;15.85;;
25715;SDS011;13573;50.936;4.328;2023-05-14T10:39:50;19.50;;;14.13;;
25715;SDS011;13573;50.936;4.328;2023-05-14T10:42:22;41.83;;;37.48;;
25715;SDS011;13573;50.936;4.328;2023-05-14T10:44:54;43.48;;;39.67;;
25715;SDS011;13573;50.936;4.328;2023-05-14T10:47:23;41.85;;;37.95;;
25715;SDS011;13573;50.936;4.328;2023-05-14T10:49:52;48.58;;;43.73;;
25715;SDS011;13573;50.936;4.328;2023-05-14T10:52:21;47.40;;;42.93;;
25715;SDS011;13573;50.936;4.328;2023-05-14T10:54:48;31.57;;;24.95;;
25715;SDS011;13573;50.936;4.328;2023-05-14T10:57:20;33.23;;;29.77;;
25715;SDS011;13573;50.936;4.328;2023-05-14T10:59:49;31.70;;;28.32;;
25715;SDS011;13573;50.936;4.328;2023-05-14T11:02:21;41.83;;;38.15;;
25715;SDS011;13573;50.936;4.328;2023-05-14T11:04:54;31.45;;;17.25;;
25715;SDS011;13573;50.936;4.328;2023-05-14T11:07:27;25.20;;;16.20;;
25715;SDS011;13573;50.936;4.328;2023-05-14T11:09:58;13.35;;;7.67;;
25715;SDS011;13573;50.936;4.328;2023-05-14T11:12:26;22.13;;;15.25;;
25715;SDS011;13573;50.936;4.328;2023-05-14T11:14:56;20.80;;;13.62;;
25715;SDS011;13573;50.936;4.328;2023-05-14T11:17:24;25.62;;;15.00;;
25715;SDS011;13573;50.936;4.328;2023-05-14T11:19:52;20.82;;;13.03;;
25715;SDS011;13573;50.936;4.328;2023-05-14T11:22:19;23.73;;;14.85;;
25715;SDS011;13573;50.936;4.328;2023-05-14T11:24:47;29.95;;;14.75;;
25715;SDS011;13573;50.936;4.328;2023-05-14T11:27:14;3.05;;;1.95;;
25715;SDS011;13573;50.936;4.328;2023-05-14T11:29:43;2.08;;;1.60;;
25715;SDS011;13573;50.936;4.328;2023-05-14T11:32:11;11.95;;;7.47;;
25715;SDS011;13573;50.936;4.328;2023-05-14T11:34:38;24.55;;;14.38;;
25715;SDS011;13573;50.936;4.328;2023-05-14T11:37:06;21.55;;;15.08;;
25715;SDS011;13573;50.936;4.328;2023-05-14T11:39:34;19.30;;;12.28;;
25715;SDS011;13573;50.936;4.328;2023-05-14T11:42:03;5.60;;;1.82;;
25715;SDS011;13573;50.936;4.328;2023-05-14T11:44:32;6.80;;;2.25;;
25715;SDS011;13573;50.936;4.328;2023-05-14T11:46:59;7.10;;;3.27;;
25715;SDS011;13573;50.936;4.328;2023-05-14T11:49:27;1.87;;;0.70;;
25715;SDS011;13573;50.936;4.328;2023-05-14T11:51:56;1.45;;;0.98;;
25715;SDS011;13573;50.936;4.328;2023-05-14T11:54:25;5.95;;;3.70;;
25715;SDS011;13573;50.936;4.328;2023-05-14T11:56:53;21.52;;;15.13;;
25715;SDS011;13573;50.936;4.328;2023-05-14T11:59:24;14.68;;;7.47;;
25715;SDS011;13573;50.936;4.328;2023-05-14T12:01:54;4.20;;;2.37;;
25715;SDS011;13573;50.936;4.328;2023-05-14T12:04:21;14.90;;;8.78;;
25715;SDS011;13573;50.936;4.328;2023-05-14T12:06:49;18.98;;;13.75;;
25715;SDS011;13573;50.936;4.328;2023-05-14T12:09:19;29.63;;;17.40;;
25715;SDS011;13573;50.936;4.328;2023-05-14T12:11:48;23.57;;;17.10;;
25715;SDS011;13573;50.936;4.328;2023-05-14T12:14:16;21.70;;;14.63;;
25715;SDS011;13573;50.936;4.328;2023-05-14T12:16:44;33.92;;;30.50;;
25715;SDS011;13573;50.936;4.328;2023-05-14T12:19:14;44.35;;;40.25;;
25715;SDS011;13573;50.936;4.328;2023-05-14T12:21:42;28.00;;;15.03;;
25715;SDS011;13573;50.936;4.328;2023-05-14T12:24:11;22.15;;;16.05;;
25715;SDS011;13573;50.936;4.328;2023-05-14T12:26:39;22.73;;;19.50;;
25715;SDS011;13573;50.936;4.328;2023-05-14T12:29:07;20.92;;;14.50;;
25715;SDS011;13573;50.936;4.328;2023-05-14T12:31:37;23.30;;;14.15;;
25715;SDS011;13573;50.936;4.328;2023-05-14T12:34:13;21.70;;;14.60;;
25715;SDS011;13573;50.936;4.328;2023-05-14T12:36:40;19.30;;;12.82;;
25715;SDS011;13573;50.936;4.328;2023-05-14T12:39:08;18.37;;;13.95;;
25715;SDS011;13573;50.936;4.328;2023-05-14T12:41:36;20.65;;;14.43;;
25715;SDS011;13573;50.936;4.328;2023-05-14T12:44:03;18.00;;;13.00;;
25715;SDS011;13573;50.936;4.328;2023-05-14T12:46:31;32.03;;;29.18;;
25715;SDS011;13573;50.936;4.328;2023-05-14T12:48:58;21.93;;;15.08;;
25715;SDS011;13573;50.936;4.328;2023-05-14T12:51:25;18.92;;;12.10;;
25715;SDS011;13573;50.936;4.328;2023-05-14T12:53:52;19.27;;;13.18;;
25715;SDS011;13573;50.936;4.328;2023-05-14T12:56:19;20.10;;;14.15;;
25715;SDS011;13573;50.936;4.328;2023-05-14T12:58:48;17.15;;;12.05;;
25715;SDS011;13573;50.936;4.328;2023-05-14T13:01:14;19.42;;;14.47;;
25715;SDS011;13573;50.936;4.328;2023-05-14T13:03:41;55.43;;;51.02;;
25715;SDS011;13573;50.936;4.328;2023-05-14T13:06:07;21.70;;;13.78;;
25715;SDS011;13573;50.936;4.328;2023-05-14T13:08:34;20.27;;;12.05;;
25715;SDS011;13573;50.936;4.328;2023-05-14T13:11:01;17.42;;;11.45;;
25715;SDS011;13573;50.936;4.328;2023-05-14T13:13:27;15.50;;;12.25;;
25715;SDS011;13573;50.936;4.328;2023-05-14T13:15:54;18.73;;;13.10;;
25715;SDS011;13573;50.936;4.328;2023-05-14T13:18:21;15.68;;;10.72;;
25715;SDS011;13573;50.936;4.328;2023-05-14T13:20:47;12.98;;;10.35;;
25715;SDS011;13573;50.936;4.328;2023-05-14T13:23:14;19.10;;;12.68;;
25715;SDS011;13573;50.936;4.328;2023-05-14T13:25:40;21.95;;;13.53;;
25715;SDS011;13573;50.936;4.328;2023-05-14T13:28:07;15.18;;;11.28;;
25715;SDS011;13573;50.936;4.328;2023-05-14T13:30:34;20.05;;;11.10;;
25715;SDS011;13573;50.936;4.328;2023-05-14T13:33:01;20.60;;;12.18;;
25715;SDS011;13573;50.936;4.328;2023-05-14T13:35:27;15.98;;;11.85;;
25715;SDS011;13573;50.936;4.328;2023-05-14T13:37:54;14.90;;;9.98;;
25715;SDS011;13573;50.936;4.328;2023-05-14T13:40:21;19.40;;;12.15;;
25715;SDS011;13573;50.936;4.328;2023-05-14T13:42:47;17.37;;;11.65;;
25715;SDS011;13573;50.936;4.328;2023-05-14T13:45:14;19.70;;;11.12;;
25715;SDS011;13573;50.936;4.328;2023-05-14T13:47:40;18.42;;;10.40;;
25715;SDS011;13573;50.936;4.328;2023-05-14T13:50:07;24.30;;;11.18;;
25715;SDS011;13573;50.936;4.328;2023-05-14T13:52:34;17.20;;;11.03;;
25715;SDS011;13573;50.936;4.328;2023-05-14T13:55:01;13.85;;;9.85;;
25715;SDS011;13573;50.936;4.328;2023-05-14T13:57:27;20.02;;;11.12;;
25715;SDS011;13573;50.936;4.328;2023-05-14T13:59:54;17.25;;;9.90;;
25715;SDS011;13573;50.936;4.328;2023-05-14T14:02:20;20.05;;;11.88;;
25715;SDS011;13573;50.936;4.328;2023-05-14T14:04:47;15.93;;;11.15;;
25715;SDS011;13573;50.936;4.328;2023-05-14T14:07:14;19.55;;;11.45;;
25715;SDS011;13573;50.936;4.328;2023-05-14T14:09:40;18.55;;;10.60;;
25715;SDS011;13573;50.936;4.328;2023-05-14T14:12:07;20.57;;;10.15;;
25715;SDS011;13573;50.936;4.328;2023-05-14T14:14:34;16.73;;;10.68;;
25715;SDS011;13573;50.936;4.328;2023-05-14T14:17:01;15.30;;;9.50;;
25715;SDS011;13573;50.936;4.328;2023-05-14T14:19:27;17.25;;;10.78;;